createdAt,value
2022-09-03T00:01:50.885Z,99387.41
2022-09-03T00:04:25.787Z,99397.06
2022-09-03T00:07:03.245Z,99394.94
2022-09-03T00:09:37.607Z,99380.38
2022-09-03T00:12:34.094Z,99386.31
2022-09-03T00:15:09.425Z,99393.03
2022-09-03T00:17:41.050Z,99391.44
2022-09-03T00:20:22.167Z,99391.44
2022-09-03T00:22:56.195Z,99383.09
2022-09-03T00:25:29.011Z,99375.31
2022-09-03T00:27:58.801Z,99373.44
2022-09-03T00:30:25.912Z,99358.00
2022-09-03T00:32:58.363Z,99360.38
2022-09-03T00:35:37.686Z,99381.22
2022-09-03T00:38:06.128Z,99387.19
2022-09-03T00:40:41.977Z,99390.44
2022-09-03T00:43:46.756Z,99383.94
2022-09-03T00:46:19.569Z,99389.28
2022-09-03T00:48:59.163Z,99397.94
2022-09-03T00:51:54.869Z,99393.63
2022-09-03T00:54:41.918Z,99356.81
2022-09-03T00:57:12.075Z,99387.13
2022-09-03T00:59:38.737Z,99390.47
2022-09-03T01:02:34.131Z,99393.94
2022-09-03T01:05:30.267Z,99392.22
2022-09-03T01:08:11.887Z,99394.03
2022-09-03T01:10:50.691Z,99386.13
2022-09-03T01:13:36.160Z,99385.03
2022-09-03T01:16:21.088Z,99395.78
2022-09-03T01:19:12.639Z,99390.13
2022-09-03T01:21:55.261Z,99402.00
2022-09-03T01:24:29.889Z,99404.84
2022-09-03T01:27:17.873Z,99391.53
2022-09-03T01:29:53.874Z,99394.63
2022-09-03T01:32:59.826Z,99391.16
2022-09-03T01:35:44.020Z,99384.44
2022-09-03T01:38:32.806Z,99380.09
2022-09-03T01:41:50.619Z,99396.28
2022-09-03T01:44:30.098Z,99392.16
2022-09-03T01:47:38.092Z,99394.34
2022-09-03T01:50:12.990Z,99385.75
2022-09-03T01:52:55.501Z,99384.28
2022-09-03T01:55:48.091Z,99392.09
2022-09-03T01:58:21.587Z,99382.63
2022-09-03T02:00:56.785Z,99386.63
2022-09-03T02:03:25.880Z,99391.69
2022-09-03T02:05:53.153Z,99401.38
2022-09-03T02:08:20.674Z,99368.13
2022-09-03T02:10:52.487Z,99383.06
2022-09-03T02:13:27.331Z,99364.06
2022-09-03T02:15:58.208Z,99377.00
2022-09-03T02:18:37.781Z,99388.78
2022-09-03T02:21:05.420Z,99389.84
2022-09-03T02:23:32.492Z,99379.09
2022-09-03T02:26:01.910Z,99361.13
2022-09-03T02:28:30.854Z,99379.66
2022-09-03T02:30:57.920Z,99385.31
2022-09-03T02:33:25.455Z,99388.25
2022-09-03T02:35:53.225Z,99395.94
2022-09-03T02:38:25.756Z,99390.41
2022-09-03T02:40:56.199Z,99402.59
2022-09-03T02:43:50.305Z,99395.28
2022-09-03T02:46:27.826Z,99407.16
2022-09-03T02:48:55.075Z,99399.53
2022-09-03T02:51:22.062Z,99397.06
2022-09-03T02:53:48.901Z,99373.47
2022-09-03T02:56:18.121Z,99405.72
2022-09-03T02:58:44.864Z,99382.91
2022-09-03T03:01:11.768Z,99405.66
2022-09-03T03:03:50.902Z,99392.75
2022-09-03T03:06:20.841Z,99401.22
2022-09-03T03:08:49.787Z,99397.38
2022-09-03T03:11:18.405Z,99402.41
2022-09-03T03:13:46.431Z,99396.16
2022-09-03T03:16:15.091Z,99389.16
2022-09-03T03:18:42.141Z,99362.44
2022-09-03T03:21:11.940Z,99386.16
2022-09-03T03:23:38.769Z,99376.41
2022-09-03T03:26:07.803Z,99389.09
2022-09-03T03:28:35.520Z,99391.84
2022-09-03T03:31:14.494Z,99375.00
2022-09-03T03:33:42.109Z,99392.91
2022-09-03T03:36:14.900Z,99398.25
2022-09-03T03:38:43.250Z,99399.66
2022-09-03T03:41:26.373Z,99398.25
2022-09-03T03:43:54.994Z,99411.84
2022-09-03T03:46:23.941Z,99404.13
2022-09-03T03:48:51.837Z,99379.66
2022-09-03T03:51:19.291Z,99363.81
2022-09-03T03:53:46.912Z,99394.28
2022-09-03T03:56:16.350Z,99391.19
2022-09-03T03:58:44.244Z,99398.84
2022-09-03T04:01:11.046Z,99401.75
2022-09-03T04:03:38.367Z,99360.16
2022-09-03T04:06:06.360Z,99406.88
2022-09-03T04:08:38.278Z,99406.00
2022-09-03T04:11:07.788Z,99405.53
2022-09-03T04:13:37.720Z,99390.47
2022-09-03T04:16:06.133Z,99408.94
2022-09-03T04:18:35.226Z,99408.59
2022-09-03T04:21:08.166Z,99401.28
2022-09-03T04:23:37.872Z,99383.13
2022-09-03T04:26:06.048Z,99409.31
2022-09-03T04:28:33.274Z,99387.72
2022-09-03T04:31:02.158Z,99392.50
2022-09-03T04:33:30.741Z,99389.59
2022-09-03T04:36:19.187Z,99408.88
2022-09-03T04:38:47.235Z,99379.44
2022-09-03T04:41:16.765Z,99404.41
2022-09-03T04:43:44.353Z,99414.66
2022-09-03T04:46:16.175Z,99417.31
2022-09-03T04:48:47.597Z,99424.56
2022-09-03T04:51:16.767Z,99413.84
2022-09-03T04:53:46.355Z,99423.34
2022-09-03T04:56:18.462Z,99430.34
2022-09-03T04:58:46.122Z,99441.88
2022-09-03T05:01:18.162Z,99444.22
2022-09-03T05:03:45.537Z,99449.03
2022-09-03T05:06:13.021Z,99429.53
2022-09-03T05:08:40.370Z,99419.63
2022-09-03T05:11:07.966Z,99439.31
2022-09-03T05:13:37.042Z,99430.03
2022-09-03T05:16:06.770Z,99431.59
2022-09-03T05:18:37.603Z,99430.69
2022-09-03T05:21:07.448Z,99438.88
2022-09-03T05:23:53.004Z,99444.47
2022-09-03T05:26:28.874Z,99447.38
2022-09-03T05:28:57.693Z,99442.97
2022-09-03T05:31:28.109Z,99453.16
2022-09-03T05:34:00.459Z,99452.66
2022-09-03T05:36:30.000Z,99443.78
2022-09-03T05:38:58.798Z,99452.88
2022-09-03T05:41:27.464Z,99455.81
2022-09-03T05:43:56.153Z,99430.00
2022-09-03T05:46:30.154Z,99463.41
2022-09-03T05:49:01.978Z,99439.66
2022-09-03T05:51:29.900Z,99469.09
2022-09-03T05:53:57.875Z,99453.63
2022-09-03T05:56:26.902Z,99466.72
2022-09-03T05:58:56.356Z,99437.47
2022-09-03T06:01:29.069Z,99467.69
2022-09-03T06:04:07.337Z,99461.38
2022-09-03T06:06:54.544Z,99472.66
2022-09-03T06:09:23.372Z,99473.94
2022-09-03T06:11:52.440Z,99478.88
2022-09-03T06:14:20.155Z,99461.19
2022-09-03T06:16:52.952Z,99480.00
2022-09-03T06:19:20.335Z,99481.97
2022-09-03T06:21:47.445Z,99457.94
2022-09-03T06:24:22.571Z,99479.75
2022-09-03T06:26:53.255Z,99475.91
2022-09-03T06:29:20.870Z,99454.56
2022-09-03T06:31:51.308Z,99477.66
2022-09-03T06:34:29.609Z,99465.84
2022-09-03T06:36:56.310Z,99482.38
2022-09-03T06:39:23.170Z,99485.94
2022-09-03T06:41:51.805Z,99490.81
2022-09-03T06:44:25.330Z,99483.19
2022-09-03T06:46:53.461Z,99489.16
2022-09-03T06:49:21.314Z,99479.56
2022-09-03T06:51:48.105Z,99492.56
2022-09-03T06:54:15.860Z,99490.41
2022-09-03T06:56:42.606Z,99490.75
2022-09-03T06:59:14.636Z,99476.25
2022-09-03T07:01:45.195Z,99476.94
2022-09-03T07:04:16.514Z,99479.94
2022-09-03T07:06:44.296Z,99451.50
2022-09-03T07:09:13.378Z,99439.28
2022-09-03T07:11:46.911Z,99469.28
2022-09-03T07:14:15.584Z,99429.69
2022-09-03T07:16:43.445Z,99473.28
2022-09-03T07:19:10.299Z,99445.59
2022-09-03T07:21:37.310Z,99460.00
2022-09-03T07:24:05.658Z,99492.66
2022-09-03T07:26:35.306Z,99470.59
2022-09-03T07:29:02.989Z,99491.94
2022-09-03T07:31:35.321Z,99494.38
2022-09-03T07:34:13.369Z,99498.28
2022-09-03T07:36:47.729Z,99493.53
2022-09-03T07:39:16.749Z,99498.25
2022-09-03T07:41:46.091Z,99504.63
2022-09-03T07:44:16.232Z,99500.44
2022-09-03T07:46:45.434Z,99499.53
2022-09-03T07:49:12.360Z,99498.47
2022-09-03T07:51:39.793Z,99496.53
2022-09-03T07:54:32.846Z,99500.38
2022-09-03T07:56:59.673Z,99498.72
2022-09-03T07:59:26.611Z,99492.16
2022-09-03T08:01:53.410Z,99510.41
2022-09-03T08:04:21.810Z,99487.16
2022-09-03T08:06:49.640Z,99520.69
2022-09-03T08:09:16.442Z,99494.19
2022-09-03T08:11:44.074Z,99510.91
2022-09-03T08:14:12.575Z,99523.63
2022-09-03T08:16:42.318Z,99501.97
2022-09-03T08:19:11.214Z,99520.47
2022-09-03T08:21:38.210Z,99524.25
2022-09-03T08:24:05.685Z,99519.25
2022-09-03T08:26:37.806Z,99521.31
2022-09-03T08:29:05.865Z,99527.31
2022-09-03T08:31:34.080Z,99511.78
2022-09-03T08:34:06.817Z,99540.31
2022-09-03T08:36:38.785Z,99520.31
2022-09-03T08:39:10.964Z,99537.44
2022-09-03T08:41:46.900Z,99552.63
2022-09-03T08:44:34.735Z,99536.38
2022-09-03T08:47:21.935Z,99533.56
2022-09-03T08:49:52.236Z,99513.88
2022-09-03T08:52:42.179Z,99506.88
2022-09-03T08:55:21.207Z,99527.56
2022-09-03T08:58:15.740Z,99550.91
2022-09-03T09:00:49.035Z,99572.38
2022-09-03T09:03:24.944Z,99598.94
2022-09-03T09:06:16.736Z,99601.75
2022-09-03T09:09:04.630Z,99585.13
2022-09-03T09:11:50.748Z,99581.69
2022-09-03T09:14:24.547Z,99516.59
2022-09-03T09:17:08.464Z,99523.88
2022-09-03T09:20:10.434Z,99517.69
2022-09-03T09:22:57.450Z,99525.06
2022-09-03T09:25:26.538Z,99513.00
2022-09-03T09:28:05.056Z,99525.34
2022-09-03T09:30:32.890Z,99519.81
2022-09-03T09:33:00.654Z,99502.94
2022-09-03T09:35:27.516Z,99496.78
2022-09-03T09:37:57.616Z,99532.13
2022-09-03T09:40:27.114Z,99519.13
2022-09-03T09:43:11.711Z,99515.84
2022-09-03T09:45:40.841Z,99519.72
2022-09-03T09:48:18.526Z,99515.16
2022-09-03T09:50:45.380Z,99516.19
2022-09-03T09:53:16.457Z,99532.66
2022-09-03T09:55:58.090Z,99526.66
2022-09-03T09:58:28.332Z,99542.38
2022-09-03T10:01:13.115Z,99526.97
2022-09-03T10:03:55.285Z,99531.06
2022-09-03T10:06:49.655Z,99545.59
2022-09-03T10:09:23.354Z,99542.66
2022-09-03T10:12:19.581Z,99539.66
2022-09-03T10:14:55.703Z,99518.03
2022-09-03T10:18:10.629Z,99537.38
2022-09-03T10:20:51.791Z,99541.72
2022-09-03T10:23:29.806Z,99529.66
2022-09-03T10:26:16.881Z,99496.91
2022-09-03T10:28:56.085Z,99498.28
2022-09-03T10:31:57.792Z,99507.47
2022-09-03T10:34:37.521Z,99502.91
2022-09-03T10:37:48.906Z,99499.91
2022-09-03T10:40:40.220Z,99498.50
2022-09-03T10:44:03.122Z,99505.72
2022-09-03T10:46:45.487Z,99511.50
2022-09-03T10:49:31.182Z,99514.28
2022-09-03T10:52:27.984Z,99508.09
2022-09-03T10:55:29.478Z,99502.13
2022-09-03T10:58:05.483Z,99498.25
2022-09-03T11:00:39.926Z,99472.31
2022-09-03T11:03:25.454Z,99480.72
2022-09-03T11:05:52.138Z,99502.56
2022-09-03T11:08:21.924Z,99513.41
2022-09-03T11:10:55.116Z,99512.91
2022-09-03T11:13:30.058Z,99499.00
2022-09-03T11:16:02.073Z,99515.38
2022-09-03T11:18:40.875Z,99519.69
2022-09-03T11:21:13.031Z,99518.22
2022-09-03T11:23:48.135Z,99496.81
2022-09-03T11:26:21.226Z,99503.47
2022-09-03T11:28:59.830Z,99487.47
2022-09-03T11:31:35.650Z,99505.97
2022-09-03T11:34:22.168Z,99484.63
2022-09-03T11:36:50.539Z,99502.84
2022-09-03T11:39:27.448Z,99500.25
2022-09-03T11:41:59.719Z,99502.19
2022-09-03T11:44:44.716Z,99508.78
2022-09-03T11:47:38.383Z,99496.28
2022-09-03T11:50:21.000Z,99483.03
2022-09-03T11:52:49.506Z,99476.63
2022-09-03T11:55:38.291Z,99478.53
2022-09-03T11:58:29.471Z,99481.25
2022-09-03T12:00:59.043Z,99485.63
2022-09-03T12:03:30.035Z,99481.97
2022-09-03T12:06:22.145Z,99462.84
2022-09-03T12:09:04.081Z,99474.88
2022-09-03T12:11:57.582Z,99477.06
2022-09-03T12:15:07.596Z,99444.38
2022-09-03T12:18:17.406Z,99461.88
2022-09-03T12:20:45.120Z,99455.53
2022-09-03T12:23:28.249Z,99454.88
2022-09-03T12:25:55.470Z,99459.53
2022-09-03T12:28:24.983Z,99465.19
2022-09-03T12:30:53.548Z,99457.59
2022-09-03T12:33:22.200Z,99459.03
2022-09-03T12:36:39.273Z,99465.25
2022-09-03T12:39:13.397Z,99442.94
2022-09-03T12:42:01.906Z,99472.75
2022-09-03T12:44:31.408Z,99467.66
2022-09-03T12:49:57.432Z,99472.63
2022-09-03T12:52:33.499Z,99469.09
2022-09-03T12:55:17.428Z,99480.72
2022-09-03T12:57:49.520Z,99475.47
2022-09-03T13:00:21.084Z,99462.47
2022-09-03T13:02:56.552Z,99465.69
2022-09-03T13:05:33.624Z,99470.22
2022-09-03T13:08:05.417Z,99450.41
2022-09-03T13:10:38.139Z,99470.66
2022-09-03T13:13:28.194Z,99467.94
2022-09-03T13:16:15.446Z,99442.81
2022-09-03T13:18:48.211Z,99467.47
2022-09-03T13:21:48.839Z,99464.28
2022-09-03T13:24:54.109Z,99468.97
2022-09-03T13:27:41.639Z,99476.38
2022-09-03T13:30:17.320Z,99468.03
2022-09-03T13:33:01.778Z,99467.31
2022-09-03T13:35:40.123Z,99475.59
2022-09-03T13:39:03.178Z,99471.22
2022-09-03T13:41:43.907Z,99473.66
2022-09-03T13:44:41.001Z,99466.63
2022-09-03T13:47:37.071Z,99465.84
2022-09-03T13:50:22.430Z,99461.56
2022-09-03T13:53:09.549Z,99430.81
2022-09-03T13:55:48.238Z,99460.38
2022-09-03T13:58:24.327Z,99456.09
2022-09-03T14:01:01.309Z,99460.88
2022-09-03T14:03:48.995Z,99454.28
2022-09-03T14:06:34.213Z,99454.47
2022-09-03T14:09:24.719Z,99426.69
2022-09-03T14:12:02.596Z,99444.31
2022-09-03T14:14:46.772Z,99436.06
2022-09-03T14:17:25.701Z,99432.59
2022-09-03T14:19:52.359Z,99440.41
2022-09-03T14:22:24.654Z,99447.84
2022-09-03T14:25:09.163Z,99431.41
2022-09-03T14:27:36.625Z,99440.66
2022-09-03T14:30:09.510Z,99458.41
2022-09-03T14:32:57.434Z,99456.03
2022-09-03T14:35:30.943Z,99447.75
2022-09-03T14:38:25.775Z,99458.50
2022-09-03T14:41:03.186Z,99465.25
2022-09-03T14:43:49.420Z,99472.75
2022-09-03T14:46:33.372Z,99473.09
2022-09-03T14:49:18.796Z,99475.91
2022-09-03T14:52:01.753Z,99480.03
2022-09-03T14:54:37.389Z,99480.44
2022-09-03T14:57:04.113Z,99477.50
2022-09-03T14:59:59.189Z,99476.78
2022-09-03T15:02:44.173Z,99479.69
2022-09-03T15:05:12.243Z,99492.66
2022-09-03T15:07:46.036Z,99489.09
2022-09-03T15:10:37.712Z,99506.16
2022-09-03T15:13:20.131Z,99499.06
2022-09-03T15:16:30.014Z,99500.78
2022-09-03T15:19:07.148Z,99479.38
2022-09-03T15:22:03.766Z,99510.88
2022-09-03T15:24:51.732Z,99516.94
2022-09-03T15:27:45.535Z,99510.72
2022-09-03T15:30:15.624Z,99503.69
2022-09-03T15:33:10.029Z,99515.53
2022-09-03T15:35:41.420Z,99517.97
2022-09-03T15:38:37.990Z,99512.63
2022-09-03T15:41:20.742Z,99503.72
2022-09-03T15:43:51.116Z,99514.28
2022-09-03T15:46:29.941Z,99502.66
2022-09-03T15:49:03.402Z,99503.25
2022-09-03T15:51:35.569Z,99497.28
2022-09-03T15:54:12.680Z,99475.94
2022-09-03T15:57:02.819Z,99513.44
2022-09-03T15:59:49.608Z,99473.09
2022-09-03T16:02:24.342Z,99501.78
2022-09-03T16:05:16.322Z,99505.84
2022-09-03T16:08:03.097Z,99498.84
2022-09-03T16:10:42.790Z,99475.06
2022-09-03T16:13:28.991Z,99505.38
2022-09-03T16:16:52.720Z,99497.00
2022-09-03T16:19:29.311Z,99493.25
2022-09-03T16:22:15.088Z,99494.06
2022-09-03T16:24:47.547Z,99499.19
2022-09-03T16:27:24.805Z,99496.75
2022-09-03T16:30:13.071Z,99498.91
2022-09-03T16:32:58.418Z,99498.91
2022-09-03T16:35:43.109Z,99493.25
2022-09-03T16:38:17.645Z,99497.81
2022-09-03T16:41:19.716Z,99483.47
2022-09-03T16:44:06.014Z,99487.53
2022-09-03T16:46:58.519Z,99501.03
2022-09-03T16:49:36.037Z,99507.50
2022-09-03T16:52:37.891Z,99509.38
2022-09-03T16:55:22.629Z,99473.41
2022-09-03T16:58:08.124Z,99503.72
2022-09-03T17:01:01.274Z,99496.75
2022-09-03T17:03:55.685Z,99494.03
2022-09-03T17:06:54.979Z,99501.63
2022-09-03T17:09:27.798Z,99493.25
2022-09-03T17:12:26.142Z,99493.53
2022-09-03T17:15:01.801Z,99495.13
2022-09-03T17:18:08.667Z,99479.44
2022-09-03T17:20:53.877Z,99498.38
2022-09-03T17:24:05.092Z,99497.81
2022-09-03T17:26:47.477Z,99497.81
2022-09-03T17:29:45.219Z,99508.22
2022-09-03T17:32:12.229Z,99519.81
2022-09-03T17:34:51.183Z,99515.34
2022-09-03T17:37:56.586Z,99506.66
2022-09-03T17:40:55.973Z,99511.78
2022-09-03T17:44:01.464Z,99515.25
2022-09-03T17:46:35.544Z,99525.34
2022-09-03T17:49:13.477Z,99509.19
2022-09-03T17:51:50.482Z,99524.34
2022-09-03T17:54:22.959Z,99532.44
2022-09-03T17:56:55.546Z,99525.09
2022-09-03T17:59:29.519Z,99530.78
2022-09-03T18:02:16.963Z,99527.50
2022-09-03T18:04:51.774Z,99541.53
2022-09-03T18:07:28.155Z,99543.09
2022-09-03T18:10:03.714Z,99537.66
2022-09-03T18:12:39.460Z,99544.06
2022-09-03T18:15:21.314Z,99542.94
2022-09-03T18:17:57.649Z,99557.22
2022-09-03T18:20:46.027Z,99549.88
2022-09-03T18:23:44.308Z,99566.03
2022-09-03T18:26:39.744Z,99576.44
2022-09-03T18:29:52.420Z,99579.72
2022-09-03T18:32:39.999Z,99594.84
2022-09-03T18:35:27.454Z,99588.56
2022-09-03T18:38:13.155Z,99598.22
2022-09-03T18:41:11.108Z,99583.19
2022-09-03T18:44:02.402Z,99599.59
2022-09-03T18:48:01.601Z,99605.47
2022-09-03T18:50:22.764Z,99613.38
2022-09-03T18:53:47.135Z,99621.22
2022-09-03T18:56:38.886Z,99631.00
2022-09-03T18:59:48.848Z,99608.09
2022-09-03T19:02:55.715Z,99630.56
2022-09-03T19:06:01.649Z,99638.34
2022-09-03T19:08:55.666Z,99622.38
2022-09-03T19:12:09.553Z,99626.53
2022-09-03T19:15:16.491Z,99642.91
2022-09-03T19:18:29.500Z,99654.34
2022-09-03T19:21:33.478Z,99656.50
2022-09-03T19:24:21.101Z,99639.88
2022-09-03T19:27:51.744Z,99653.28
2022-09-03T19:31:11.260Z,99665.66
2022-09-03T19:34:09.034Z,99666.53
2022-09-03T19:37:10.366Z,99651.94
2022-09-03T19:40:10.864Z,99663.06
2022-09-03T19:43:02.103Z,99656.03
2022-09-03T19:46:10.696Z,99658.94
2022-09-03T19:49:31.599Z,99673.50
2022-09-03T19:52:27.911Z,99644.41
2022-09-03T19:55:16.402Z,99680.25
2022-09-03T19:58:20.435Z,99669.59
2022-09-03T20:01:12.487Z,99674.22
2022-09-03T20:03:58.261Z,99647.41
2022-09-03T20:06:43.972Z,99654.47
2022-09-03T20:09:35.811Z,99679.97
2022-09-03T20:12:07.371Z,99675.66
2022-09-03T20:14:37.473Z,99669.00
2022-09-03T20:17:20.293Z,99686.72
2022-09-03T20:20:01.338Z,99671.91
2022-09-03T20:22:33.949Z,99667.44
2022-09-03T20:25:27.189Z,99671.72
2022-09-03T20:28:30.316Z,99665.84
2022-09-03T20:31:00.092Z,99690.03
2022-09-03T20:33:27.029Z,99689.22
2022-09-03T20:36:20.991Z,99677.97
2022-09-03T20:38:59.628Z,99694.06
2022-09-03T20:41:26.397Z,99696.69
2022-09-03T20:44:01.954Z,99701.25
2022-09-03T20:47:02.125Z,99703.81
2022-09-03T20:49:40.428Z,99696.63
2022-09-03T20:52:33.626Z,99701.19
2022-09-03T20:55:16.464Z,99689.56
2022-09-03T20:57:58.679Z,99711.03
2022-09-03T21:00:26.502Z,99696.72
2022-09-03T21:03:15.939Z,99715.16
2022-09-03T21:05:57.355Z,99698.25
2022-09-03T21:08:46.234Z,99725.19
2022-09-03T21:11:40.904Z,99707.13
2022-09-03T21:14:14.560Z,99721.00
2022-09-03T21:16:41.262Z,99728.13
2022-09-03T21:19:37.678Z,99728.00
2022-09-03T21:22:23.979Z,99729.41
2022-09-03T21:25:00.138Z,99711.44
2022-09-03T21:27:35.525Z,99717.03
2022-09-03T21:30:12.973Z,99723.66
2022-09-03T21:32:39.767Z,99727.28
2022-09-03T21:35:16.240Z,99718.88
2022-09-03T21:38:17.564Z,99724.16
2022-09-03T21:41:12.569Z,99713.06
2022-09-03T21:44:07.478Z,99692.88
2022-09-03T21:46:49.327Z,99743.16
2022-09-03T21:49:25.176Z,99736.50
2022-09-03T21:51:58.722Z,99700.09
2022-09-03T21:54:29.029Z,99737.78
2022-09-03T21:57:04.536Z,99743.03
2022-09-03T21:59:49.345Z,99744.53
2022-09-03T22:02:26.495Z,99751.44
2022-09-03T22:04:55.032Z,99749.91
2022-09-03T22:07:21.767Z,99743.25
2022-09-03T22:10:26.002Z,99748.03
2022-09-03T22:13:09.167Z,99746.00
2022-09-03T22:15:37.993Z,99716.22
2022-09-03T22:18:28.666Z,99725.09
2022-09-03T22:21:02.252Z,99722.44
2022-09-03T22:23:44.290Z,99718.00
2022-09-03T22:26:49.441Z,99748.16
2022-09-03T22:29:49.214Z,99747.88
2022-09-03T22:32:33.832Z,99744.97
2022-09-03T22:35:22.319Z,99748.56
2022-09-03T22:38:07.068Z,99750.06
2022-09-03T22:41:03.187Z,99753.81
2022-09-03T22:43:39.526Z,99748.78
2022-09-03T22:46:20.488Z,99744.34
2022-09-03T22:49:08.848Z,99759.59
2022-09-03T22:52:04.544Z,99771.25
2022-09-03T22:55:21.290Z,99771.16
2022-09-03T22:57:58.800Z,99765.06
2022-09-03T23:00:26.437Z,99766.13
2022-09-03T23:03:08.092Z,99762.97
2022-09-03T23:06:17.383Z,99773.31
2022-09-03T23:08:52.328Z,99775.53
2022-09-03T23:11:25.537Z,99772.25
2022-09-03T23:14:16.247Z,99776.34
2022-09-03T23:16:52.788Z,99781.94
2022-09-03T23:22:01.519Z,99755.75
2022-09-03T23:24:32.351Z,99748.34
2022-09-03T23:27:03.627Z,99780.91
2022-09-03T23:29:36.264Z,99786.72
2022-09-03T23:32:06.210Z,99778.53
2022-09-03T23:34:33.544Z,99795.19
2022-09-03T23:37:40.047Z,99797.72
2022-09-03T23:40:18.785Z,99802.63
2022-09-03T23:43:13.412Z,99796.22
2022-09-03T23:45:49.297Z,99798.47
2022-09-03T23:48:21.911Z,99796.38
2022-09-03T23:51:12.802Z,99788.84
2022-09-03T23:53:45.503Z,99797.88
2022-09-03T23:56:31.162Z,99802.44
2022-09-03T23:59:22.756Z,99801.09
